createdAt,value
2019-02-17T00:00:35.856Z,93.00
2019-02-17T00:05:42.154Z,93.00
2019-02-17T00:10:48.504Z,93.10
2019-02-17T00:15:54.871Z,93.40
2019-02-17T00:21:01.177Z,93.90
2019-02-17T00:26:07.537Z,93.60
2019-02-17T00:31:13.757Z,93.80
2019-02-17T00:36:19.969Z,93.60
2019-02-17T00:41:26.210Z,93.50
2019-02-17T00:46:32.420Z,93.60
2019-02-17T00:51:38.687Z,93.60
2019-02-17T00:56:45.082Z,93.40
2019-02-17T01:01:51.276Z,93.30
2019-02-17T01:06:57.489Z,93.80
2019-02-17T01:12:03.736Z,93.60
2019-02-17T01:17:09.985Z,93.40
2019-02-17T01:22:16.288Z,93.90
2019-02-17T01:27:22.609Z,93.60
2019-02-17T01:32:28.893Z,93.40
2019-02-17T01:37:35.139Z,93.70
2019-02-17T01:42:41.353Z,93.80
2019-02-17T01:47:47.621Z,94.00
2019-02-17T01:52:53.851Z,94.00
2019-02-17T01:58:00.100Z,93.80
2019-02-17T02:03:06.302Z,93.80
2019-02-17T02:08:12.520Z,93.60
2019-02-17T02:13:18.698Z,93.60
2019-02-17T02:18:24.914Z,93.80
2019-02-17T02:23:31.197Z,93.90
2019-02-17T02:28:37.394Z,93.90
2019-02-17T02:33:43.632Z,93.80
2019-02-17T02:38:49.820Z,94.20
2019-02-17T02:43:56.026Z,94.50
2019-02-17T02:49:02.235Z,94.70
2019-02-17T02:54:08.431Z,94.70
2019-02-17T02:59:14.793Z,94.90
2019-02-17T03:04:20.999Z,95.00
2019-02-17T03:09:27.270Z,94.70
2019-02-17T03:14:33.538Z,94.50
2019-02-17T03:19:40.691Z,94.90
2019-02-17T03:24:46.962Z,94.80
2019-02-17T03:30:04.048Z,95.40
2019-02-17T03:35:01.197Z,95.80
2019-02-17T03:40:08.194Z,95.90
2019-02-17T03:45:14.598Z,96.00
2019-02-17T03:50:20.835Z,96.00
2019-02-17T03:55:27.087Z,96.10
2019-02-17T04:00:33.386Z,95.60
2019-02-17T04:05:39.611Z,95.50
2019-02-17T04:10:45.900Z,95.50
2019-02-17T04:15:52.142Z,96.30
2019-02-17T04:20:58.347Z,97.70
2019-02-17T04:26:05.610Z,96.50
2019-02-17T04:31:12.028Z,96.70
2019-02-17T04:36:18.391Z,97.90
2019-02-17T04:41:24.674Z,97.40
2019-02-17T04:46:30.885Z,97.20
2019-02-17T04:51:37.152Z,97.00
2019-02-17T04:56:43.460Z,97.10
2019-02-17T05:01:49.734Z,96.90
2019-02-17T05:06:55.921Z,96.90
2019-02-17T05:12:02.135Z,97.10
2019-02-17T05:17:08.359Z,97.30
2019-02-17T05:22:14.645Z,97.60
2019-02-17T05:27:20.933Z,97.40
2019-02-17T05:32:27.213Z,97.60
2019-02-17T05:37:33.495Z,97.40
2019-02-17T05:42:39.783Z,97.00
2019-02-17T05:47:46.017Z,97.00
2019-02-17T05:52:52.234Z,97.60
2019-02-17T05:57:58.442Z,97.80
2019-02-17T06:03:05.245Z,97.50
2019-02-17T06:08:11.487Z,97.50
2019-02-17T06:13:17.781Z,97.60
2019-02-17T06:18:24.089Z,97.70
2019-02-17T06:23:30.299Z,97.60
2019-02-17T06:28:37.786Z,97.60
2019-02-17T06:33:44.752Z,97.60
2019-02-17T06:38:50.955Z,97.30
2019-02-17T06:43:57.195Z,97.30
2019-02-17T06:49:03.452Z,97.20
2019-02-17T06:54:09.751Z,97.20
2019-02-17T06:59:16.117Z,97.30
2019-02-17T07:04:30.962Z,97.40
2019-02-17T07:09:37.199Z,98.00
2019-02-17T07:14:43.469Z,97.80
2019-02-17T07:19:50.843Z,97.50
2019-02-17T07:24:57.150Z,97.50
2019-02-17T07:30:04.545Z,97.40
2019-02-17T07:35:10.795Z,97.80
2019-02-17T07:40:17.071Z,97.50
2019-02-17T07:45:23.295Z,97.00
2019-02-17T07:50:29.542Z,97.10
2019-02-17T07:55:36.815Z,96.90
2019-02-17T08:00:43.301Z,96.80
2019-02-17T08:05:49.821Z,96.80
2019-02-17T08:11:03.741Z,96.90
2019-02-17T08:16:04.205Z,96.60
2019-02-17T08:21:10.406Z,96.70
2019-02-17T08:26:16.668Z,96.20
2019-02-17T08:31:22.978Z,96.10
2019-02-17T08:36:29.325Z,95.90
2019-02-17T08:41:35.604Z,95.60
2019-02-17T08:46:41.952Z,95.50
2019-02-17T08:51:48.278Z,95.00
2019-02-17T08:56:54.595Z,94.70
2019-02-17T09:02:05.998Z,94.30
2019-02-17T09:07:08.818Z,93.10
2019-02-17T09:12:16.744Z,92.30
2019-02-17T09:17:22.973Z,91.70
2019-02-17T09:22:29.440Z,90.70
2019-02-17T09:27:35.770Z,90.50
2019-02-17T09:32:42.214Z,89.30
2019-02-17T09:37:48.460Z,87.70
2019-02-17T09:42:54.877Z,85.70
2019-02-17T09:48:02.909Z,84.10
2019-02-17T09:53:09.190Z,86.10
2019-02-17T09:58:15.454Z,83.00
2019-02-17T10:03:21.909Z,82.40
2019-02-17T10:08:28.547Z,81.70
2019-02-17T10:13:34.950Z,80.40
2019-02-17T10:18:41.238Z,80.20
2019-02-17T10:23:47.663Z,76.50
2019-02-17T10:28:54.206Z,74.10
2019-02-17T10:34:00.529Z,75.30
2019-02-17T10:39:08.074Z,76.20
2019-02-17T10:44:14.312Z,74.50
2019-02-17T10:49:20.520Z,75.10
2019-02-17T10:54:26.926Z,74.40
2019-02-17T10:59:33.350Z,72.10
2019-02-17T11:04:39.690Z,68.40
2019-02-17T11:09:46.096Z,70.00
2019-02-17T11:14:53.962Z,69.60
2019-02-17T11:20:00.208Z,66.70
2019-02-17T11:25:06.788Z,66.50
2019-02-17T11:30:14.325Z,68.10
2019-02-17T11:35:20.757Z,67.20
2019-02-17T11:40:27.204Z,68.80
2019-02-17T11:45:33.513Z,69.50
2019-02-17T11:50:40.156Z,70.40
2019-02-17T11:55:46.391Z,70.70
2019-02-17T12:00:53.605Z,68.90
2019-02-17T12:05:59.862Z,70.10
2019-02-17T12:11:06.177Z,69.40
2019-02-17T12:16:12.576Z,66.60
2019-02-17T12:21:36.669Z,69.20
2019-02-17T12:27:03.072Z,68.60
2019-02-17T12:32:12.109Z,69.00
2019-02-17T12:37:18.381Z,70.00
2019-02-17T12:42:24.831Z,68.20
2019-02-17T12:47:31.274Z,67.00
2019-02-17T12:52:46.809Z,69.00
2019-02-17T12:57:45.575Z,69.50
2019-02-17T13:02:51.904Z,68.10
2019-02-17T13:07:58.376Z,69.10
2019-02-17T13:13:06.078Z,67.50
2019-02-17T13:18:12.497Z,68.30
2019-02-17T13:23:21.416Z,67.80
2019-02-17T13:28:27.646Z,65.20
2019-02-17T13:33:39.322Z,64.40
2019-02-17T13:38:42.103Z,65.10
2019-02-17T13:43:48.492Z,64.20
2019-02-17T13:48:54.763Z,62.40
2019-02-17T13:54:02.117Z,62.50
2019-02-17T13:59:09.510Z,62.80
2019-02-17T14:04:15.814Z,61.70
2019-02-17T15:07:38.098Z,59.20
2019-02-17T15:12:44.423Z,59.40
2019-02-17T15:17:50.823Z,59.10
2019-02-17T15:22:57.156Z,60.30
2019-02-17T15:28:06.292Z,60.00
2019-02-17T15:33:12.618Z,60.60
2019-02-17T15:38:18.856Z,61.30
2019-02-17T15:43:25.101Z,61.80
2019-02-17T15:48:31.336Z,62.20
2019-02-17T15:53:37.696Z,62.00
2019-02-17T15:58:45.022Z,63.00
2019-02-17T16:03:51.461Z,63.20
2019-02-17T16:08:57.832Z,64.70
2019-02-17T16:14:04.144Z,64.90
2019-02-17T16:19:10.415Z,65.10
2019-02-17T16:24:16.745Z,65.40
2019-02-17T16:29:23.040Z,65.60
2019-02-17T16:34:38.118Z,68.10
2019-02-17T16:39:37.459Z,69.80
2019-02-17T16:44:43.744Z,69.10
2019-02-17T16:49:50.055Z,69.40
2019-02-17T16:54:56.384Z,70.00
2019-02-17T17:00:02.602Z,70.90
2019-02-17T17:05:10.812Z,72.60
2019-02-17T17:10:18.700Z,71.90
2019-02-17T17:15:27.906Z,72.20
2019-02-17T17:20:34.195Z,71.80
2019-02-17T17:25:42.241Z,72.40
2019-02-17T17:30:48.616Z,74.60
2019-02-17T17:35:54.873Z,75.60
2019-02-17T17:41:01.199Z,78.60
2019-02-17T17:46:08.475Z,80.40
2019-02-17T17:51:14.723Z,81.90
2019-02-17T17:56:20.937Z,84.50
2019-02-17T18:01:27.266Z,83.30
2019-02-17T18:06:33.731Z,83.40
2019-02-17T18:11:40.235Z,83.40
2019-02-17T18:16:46.547Z,81.40
2019-02-17T18:21:52.877Z,82.80
2019-02-17T18:26:59.164Z,85.10
2019-02-17T18:32:05.521Z,85.20
2019-02-17T18:37:11.826Z,85.70
2019-02-17T18:42:18.131Z,86.40
2019-02-17T18:47:24.459Z,86.80
2019-02-17T18:52:30.735Z,86.10
2019-02-17T18:57:36.999Z,84.00
2019-02-17T19:02:43.241Z,82.60
2019-02-17T19:07:49.550Z,84.70
2019-02-17T19:12:55.798Z,83.70
2019-02-17T19:18:02.511Z,84.10
2019-02-17T19:23:08.700Z,84.10
2019-02-17T19:28:15.080Z,85.20
2019-02-17T19:33:23.164Z,86.90
2019-02-17T19:38:29.451Z,87.20
2019-02-17T19:43:35.748Z,87.60
2019-02-17T19:48:42.036Z,88.00
2019-02-17T19:53:48.293Z,88.20
2019-02-17T19:58:56.333Z,90.20
2019-02-17T20:04:07.754Z,90.50
2019-02-17T20:09:20.267Z,89.20
2019-02-17T20:14:26.983Z,89.30
2019-02-17T20:19:35.099Z,90.00
2019-02-17T20:24:41.243Z,89.70
2019-02-17T20:29:47.495Z,88.10
2019-02-17T20:34:53.708Z,86.30
2019-02-17T20:39:59.945Z,83.00
2019-02-17T20:45:06.927Z,80.90
2019-02-17T20:50:13.494Z,80.60
2019-02-17T20:55:19.747Z,78.50
2019-02-17T21:00:27.515Z,78.50
2019-02-17T21:05:33.760Z,78.10
2019-02-17T21:10:40.358Z,79.70
2019-02-17T21:15:46.587Z,81.80
2019-02-17T21:20:53.007Z,79.00
2019-02-17T21:25:59.397Z,81.30
2019-02-17T21:31:05.655Z,82.90
2019-02-17T21:36:11.925Z,86.30
2019-02-17T21:41:18.152Z,85.70
2019-02-17T21:46:24.388Z,86.80
2019-02-17T21:51:30.633Z,87.60
2019-02-17T21:56:37.824Z,88.70
2019-02-17T22:01:44.101Z,90.40
2019-02-17T22:06:50.313Z,90.70
2019-02-17T22:11:57.235Z,90.50
2019-02-17T22:17:03.546Z,90.80
2019-02-17T22:22:09.760Z,90.20
2019-02-17T22:27:16.052Z,90.30
2019-02-17T22:32:22.459Z,89.30
2019-02-17T22:37:28.768Z,84.50
2019-02-17T22:42:35.043Z,84.00
2019-02-17T22:47:41.361Z,84.00
2019-02-17T22:52:47.628Z,83.10
2019-02-17T22:57:53.919Z,83.70
2019-02-17T23:03:00.094Z,84.60
2019-02-17T23:08:06.317Z,86.10
2019-02-17T23:13:12.495Z,85.40
2019-02-17T23:18:18.745Z,84.60
2019-02-17T23:23:24.940Z,85.30
2019-02-17T23:28:31.235Z,83.60
2019-02-17T23:33:37.535Z,85.00
2019-02-17T23:38:44.791Z,90.00
2019-02-17T23:43:50.992Z,89.30
2019-02-17T23:48:57.200Z,89.10
2019-02-17T23:54:03.431Z,87.50
2019-02-17T23:59:09.724Z,84.80
